Time;durP1;ratioP1;P1;durP2;ratioP2;P2;SDS_P1;SDS_P2;PMS_P1;PMS_P2;Temp;Humidity;BMP_temperature;BMP_pressure;BME280_temperature;BME280_humidity;BME280_pressure;Samples;Min_cycle;Max_cycle;Signal;HPM_P1;HPM_P2
2021/05/24 00:02:25;;;;;;;3.47;1.50;;;;;;;17.11;43.11;100989.94;4972624;28;114116;-68
2021/05/24 00:04:52;;;;;;;4.55;1.50;;;;;;;17.10;43.11;100982.88;4983751;28;123895;-68
2021/05/24 00:07:19;;;;;;;2.83;1.30;;;;;;;17.10;43.17;100972.16;4987364;28;123331;-68
2021/05/24 00:09:46;;;;;;;4.22;1.30;;;;;;;17.10;43.31;100972.16;4990470;28;114741;-68
2021/05/24 00:12:13;;;;;;;2.08;1.20;;;;;;;17.09;43.30;100963.28;4987395;28;113815;-68
2021/05/24 00:14:41;;;;;;;3.72;1.33;;;;;;;17.08;43.35;100960.72;4989298;28;124116;-68
2021/05/24 00:17:08;;;;;;;2.85;1.30;;;;;;;17.08;43.45;100963.38;4988573;28;124704;-68
2021/05/24 00:19:35;;;;;;;4.30;1.13;;;;;;;17.07;43.52;100957.19;4989656;28;115330;-68
2021/05/24 00:22:02;;;;;;;4.15;1.38;;;;;;;17.08;43.65;100947.34;4990222;28;115298;-68
2021/05/24 00:24:29;;;;;;;2.85;1.17;;;;;;;17.06;43.45;100934.06;4984575;28;125037;-68
2021/05/24 00:26:56;;;;;;;2.08;1.15;;;;;;;17.06;43.68;100933.19;4988161;28;124058;-68
2021/05/24 00:29:25;;;;;;;3.75;1.20;;;;;;;17.06;43.76;100939.41;5002227;28;114467;-68
2021/05/24 00:31:52;;;;;;;2.70;1.20;;;;;;;17.07;43.79;100929.56;4989144;28;114253;-68
2021/05/24 00:34:19;;;;;;;3.22;1.25;;;;;;;17.05;43.86;100929.69;4987129;28;122891;-68
2021/05/24 00:36:46;;;;;;;3.42;1.30;;;;;;;17.05;43.97;100932.34;4990068;28;123958;-68
2021/05/24 00:39:13;;;;;;;2.47;1.20;;;;;;;17.06;43.86;100930.53;4988740;28;114262;-68
2021/05/24 00:41:42;;;;;;;4.32;1.30;;;;;;;17.05;43.84;100926.16;4989425;28;114534;-68
2021/05/24 00:44:10;;;;;;;2.17;1.00;;;;;;;17.06;44.04;100920.66;4991558;28;124312;-68
2021/05/24 00:46:38;;;;;;;2.90;1.05;;;;;;;17.06;44.06;100918.00;4992306;28;123991;-68
2021/05/24 00:49:06;;;;;;;2.42;1.10;;;;;;;17.08;44.02;100917.88;4992718;28;114302;-68
2021/05/24 00:51:34;;;;;;;2.58;1.20;;;;;;;17.09;43.73;100911.59;4990721;28;113256;-68
2021/05/24 00:54:02;;;;;;;2.65;1.10;;;;;;;17.11;43.93;100915.00;4990968;28;123407;-68
2021/05/24 00:56:31;;;;;;;3.08;1.27;;;;;;;17.11;43.98;100910.50;4992133;28;124328;-68
2021/05/24 00:58:58;;;;;;;2.85;1.20;;;;;;;17.14;43.85;100909.44;4993017;28;114327;-68
2021/05/24 01:01:28;;;;;;;3.17;1.20;;;;;;;17.16;43.91;100901.28;4993071;28;114054;-68
2021/05/24 01:03:57;;;;;;;2.17;1.00;;;;;;;17.17;43.82;100897.66;4988881;28;124332;-68
2021/05/24 01:06:25;;;;;;;2.80;1.10;;;;;;;17.17;43.83;100887.78;4992162;28;124249;-68
2021/05/24 01:08:52;;;;;;;3.50;1.02;;;;;;;17.20;43.86;100887.59;4990714;28;115541;-68
2021/05/24 01:11:22;;;;;;;6.07;1.20;;;;;;;17.21;43.83;100881.25;4990905;28;113855;-68
2021/05/24 01:13:49;;;;;;;1.85;0.98;;;;;;;17.23;43.75;100865.94;4990893;28;123043;-68
2021/05/24 01:16:17;;;;;;;3.65;1.10;;;;;;;17.22;43.74;100869.59;4990921;28;123324;-68
2021/05/24 01:18:44;;;;;;;2.97;1.10;;;;;;;17.24;43.97;100864.13;4992469;28;114261;-68
2021/05/24 01:21:13;;;;;;;1.85;1.00;;;;;;;17.24;43.92;100862.31;4991286;28;114059;-68
2021/05/24 01:23:41;;;;;;;1.90;1.52;;;;;;;17.25;43.79;100866.69;4975342;28;124378;-68
2021/05/24 01:26:09;;;;;;;2.00;1.08;;;;;;;17.25;43.84;100858.66;4989329;28;123710;-68
2021/05/24 01:28:36;;;;;;;3.70;1.40;;;;;;;17.25;43.89;100861.34;4989954;28;114648;-68
2021/05/24 01:31:04;;;;;;;3.10;0.98;;;;;;;17.26;43.98;100855.00;4989738;28;113333;-68
2021/05/24 01:33:34;;;;;;;1.92;1.02;;;;;;;17.26;43.87;100854.16;4991198;28;124330;-68
2021/05/24 01:36:07;;;;;;;2.58;1.15;;;;;;;17.26;44.01;100865.72;4990057;28;123986;-68
2021/05/24 01:38:37;;;;;;;2.10;1.10;;;;;;;17.26;43.82;100860.38;4990288;28;113462;-68
2021/05/24 01:41:06;;;;;;;2.25;1.10;;;;;;;17.25;44.02;100845.28;4992641;28;114264;-67
2021/05/24 01:43:34;;;;;;;2.28;1.10;;;;;;;17.24;43.98;100853.44;4987942;28;123149;-68
2021/05/24 01:46:02;;;;;;;3.92;1.10;;;;;;;17.24;44.06;100842.72;4991851;28;124200;-68
2021/05/24 01:48:31;;;;;;;3.28;1.10;;;;;;;17.24;44.06;100840.88;4991511;28;114459;-68
2021/05/24 01:50:59;;;;;;;3.75;1.00;;;;;;;17.22;43.83;100832.13;4989786;28;113261;-67
2021/05/24 01:53:26;;;;;;;3.38;1.25;;;;;;;17.23;44.21;100828.47;4989179;28;123544;-67
2021/05/24 01:55:55;;;;;;;3.00;1.20;;;;;;;17.22;44.04;100833.94;5004161;28;125349;-67
2021/05/24 01:58:24;;;;;;;1.65;1.13;;;;;;;17.21;43.99;100825.03;4987453;28;113287;-68
2021/05/24 02:00:51;;;;;;;4.70;1.10;;;;;;;17.21;44.13;100824.19;4989930;28;114165;-68
2021/05/24 02:03:18;;;;;;;2.42;1.10;;;;;;;17.21;44.22;100830.41;4990022;28;124983;-68
2021/05/24 02:05:45;;;;;;;2.80;0.85;;;;;;;17.21;44.22;100830.41;4991720;28;124207;-68
2021/05/24 02:08:12;;;;;;;3.95;1.20;;;;;;;17.21;44.34;100829.56;4991384;28;114802;-68
2021/05/24 02:10:39;;;;;;;2.90;1.10;;;;;;;17.19;44.56;100821.63;4991179;28;114680;-68
2021/05/24 02:13:07;;;;;;;4.80;1.17;;;;;;;17.19;44.50;100821.63;4990204;28;123500;-67
2021/05/24 02:15:39;;;;;;;3.35;1.02;;;;;;;17.17;44.66;100823.56;4990381;28;123857;-68
2021/05/24 02:18:07;;;;;;;2.17;0.93;;;;;;;17.18;44.49;100814.59;4991455;28;115043;-67
2021/05/24 02:20:34;;;;;;;7.28;1.30;;;;;;;17.18;44.68;100819.06;4989750;28;112794;-67
2021/05/24 02:23:05;;;;;;;1.90;0.95;;;;;;;17.17;44.66;100815.53;4989724;28;122945;-68
2021/05/24 02:25:33;;;;;;;3.47;1.10;;;;;;;17.17;44.69;100812.84;4989541;28;123689;-68
2021/05/24 02:28:00;;;;;;;1.73;1.00;;;;;;;17.16;44.78;100808.50;4991742;28;114138;-67
2021/05/24 02:30:27;;;;;;;2.00;1.10;;;;;;;17.16;44.75;100811.16;4991863;28;114336;-67
2021/05/24 02:32:55;;;;;;;2.15;0.90;;;;;;;17.15;44.89;100800.56;4990867;28;123966;-67
2021/05/24 02:35:24;;;;;;;2.38;1.17;;;;;;;17.14;45.10;100799.72;4991412;28;123770;-68
2021/05/24 02:37:53;;;;;;;2.20;1.02;;;;;;;17.11;44.91;100792.75;4990994;28;115140;-67
2021/05/24 02:40:21;;;;;;;1.95;1.00;;;;;;;17.11;45.17;100791.91;4992024;28;114663;-68
2021/05/24 02:42:50;;;;;;;5.85;1.25;;;;;;;17.09;45.33;100800.03;4989164;28;124957;-68
2021/05/24 02:45:20;;;;;;;3.50;1.25;;;;;;;17.09;45.16;100799.19;5004080;28;124400;-68
2021/05/24 02:47:49;;;;;;;2.92;0.90;;;;;;;17.07;45.16;100788.59;4989644;28;115509;-68
2021/05/24 02:50:20;;;;;;;2.13;1.00;;;;;;;17.07;45.23;100790.44;4990394;28;114752;-68
2021/05/24 02:52:47;;;;;;;2.42;1.10;;;;;;;17.07;45.23;100793.09;4972208;28;123198;-68
2021/05/24 02:55:15;;;;;;;3.03;1.17;;;;;;;17.06;45.43;100791.38;4990938;28;124281;-68
2021/05/24 02:57:43;;;;;;;2.65;0.95;;;;;;;17.06;45.35;100794.06;4989878;28;113953;-68
2021/05/24 03:00:11;;;;;;;5.28;1.40;;;;;;;17.06;45.48;100783.34;4989680;28;113310;-68
2021/05/24 03:02:45;;;;;;;2.42;0.90;;;;;;;17.06;45.43;100783.34;4991121;28;123629;-68
2021/05/24 03:05:15;;;;;;;2.30;1.20;;;;;;;17.08;45.47;100781.41;4989593;28;122817;-68
2021/05/24 03:07:42;;;;;;;2.67;1.10;;;;;;;17.07;45.37;100785.06;4991072;28;114636;-67
2021/05/24 03:10:11;;;;;;;1.80;1.02;;;;;;;17.07;45.53;100779.72;4989369;28;113946;-68
2021/05/24 03:12:38;;;;;;;2.38;0.90;;;;;;;17.07;45.42;100782.41;4990237;28;124255;-67
2021/05/24 03:15:06;;;;;;;2.35;1.08;;;;;;;17.06;45.59;100778.00;4990513;28;124627;-67
2021/05/24 03:17:33;;;;;;;4.50;1.05;;;;;;;17.06;45.54;100778.00;4990060;28;114746;-68
2021/05/24 03:20:01;;;;;;;3.05;1.30;;;;;;;17.06;45.57;100778.00;4991561;28;113038;-68
2021/05/24 03:22:28;;;;;;;3.63;1.10;;;;;;;17.05;45.63;100771.81;4989834;28;125357;-68
2021/05/24 03:24:55;;;;;;;6.20;1.20;;;;;;;17.07;45.41;100779.72;4984864;28;122544;-68
2021/05/24 03:27:22;;;;;;;3.97;1.23;;;;;;;17.06;45.56;100778.00;4974274;28;112514;-67
2021/05/24 03:29:49;;;;;;;1.90;0.98;;;;;;;17.06;45.56;100772.66;4991001;28;114717;-68
2021/05/24 03:32:16;;;;;;;4.03;0.90;;;;;;;17.07;45.68;100785.06;4990219;28;123962;-68
2021/05/24 03:34:43;;;;;;;1.30;0.90;;;;;;;17.05;45.64;100777.16;4988782;28;123752;-68
2021/05/24 03:37:10;;;;;;;2.90;1.40;;;;;;;17.06;45.65;100778.00;4989633;28;114344;-68
2021/05/24 03:39:38;;;;;;;2.58;1.17;;;;;;;17.04;45.82;100769.22;4991072;28;114668;-68
2021/05/24 03:42:05;;;;;;;3.67;1.30;;;;;;;17.04;45.83;100769.22;4990852;28;125080;-68
2021/05/24 03:44:32;;;;;;;3.10;1.13;;;;;;;17.03;45.77;100775.56;4989373;28;125265;-68
2021/05/24 03:46:59;;;;;;;3.58;1.20;;;;;;;17.01;45.92;100759.63;4990511;28;114446;-67
2021/05/24 03:49:26;;;;;;;3.45;1.30;;;;;;;17.01;45.93;100764.09;4992799;28;114368;-68
2021/05/24 03:51:54;;;;;;;3.25;1.05;;;;;;;17.01;46.02;100769.44;4990053;28;122743;-68
2021/05/24 03:54:21;;;;;;;2.65;1.20;;;;;;;17.01;46.24;100764.97;5007755;28;122998;-68
2021/05/24 03:56:48;;;;;;;2.83;1.10;;;;;;;17.00;45.85;100767.75;4992352;28;113933;-68
2021/05/24 03:59:15;;;;;;;2.55;1.10;;;;;;;17.00;46.02;100767.75;4991683;28;114343;-68
2021/05/24 04:01:42;;;;;;;2.78;1.10;;;;;;;16.97;46.18;100767.97;4989401;28;124441;-68
2021/05/24 04:04:09;;;;;;;2.53;0.93;;;;;;;16.93;46.24;100762.88;4991017;28;122900;-68
2021/05/24 04:06:38;;;;;;;3.22;1.05;;;;;;;16.92;46.23;100755.78;4992216;28;114410;-68
2021/05/24 04:09:05;;;;;;;3.38;1.30;;;;;;;16.91;46.26;100754.09;4991195;28;113170;-68
2021/05/24 04:11:32;;;;;;;3.28;1.10;;;;;;;16.90;46.29;100757.72;4990345;28;124013;-68
2021/05/24 04:13:59;;;;;;;3.40;1.00;;;;;;;16.89;46.29;100756.00;4990437;28;122643;-68
2021/05/24 04:16:27;;;;;;;2.70;1.00;;;;;;;16.89;46.21;100750.66;4991399;28;114200;-68
2021/05/24 04:18:54;;;;;;;4.00;1.23;;;;;;;16.88;46.33;100748.97;4989192;28;114195;-67
2021/05/24 04:21:21;;;;;;;2.85;1.20;;;;;;;16.88;46.26;100754.31;4987589;28;123009;-68
2021/05/24 04:23:48;;;;;;;2.53;1.20;;;;;;;16.87;46.34;100747.25;4987906;28;123056;-67
2021/05/24 04:26:15;;;;;;;2.10;1.13;;;;;;;16.87;46.37;100747.25;4980556;28;116128;-68
2021/05/24 04:28:42;;;;;;;2.67;1.17;;;;;;;16.88;46.41;100740.94;4987797;28;114759;-68
2021/05/24 04:31:09;;;;;;;2.05;1.10;;;;;;;16.88;46.36;100738.25;4987072;28;124796;-68
2021/05/24 04:33:36;;;;;;;2.75;1.02;;;;;;;16.88;46.48;100738.25;4989742;28;123867;-68
2021/05/24 04:36:04;;;;;;;3.30;1.17;;;;;;;16.87;46.41;100739.22;4988069;28;113809;-68
2021/05/24 04:38:31;;;;;;;3.90;1.00;;;;;;;16.88;46.53;100735.59;4989411;28;114564;-68
2021/05/24 04:40:58;;;;;;;2.92;1.10;;;;;;;16.88;46.54;100735.59;4989359;28;124367;-68
2021/05/24 04:43:28;;;;;;;2.63;1.13;;;;;;;16.89;46.46;100734.59;4982375;28;123510;-68
2021/05/24 04:45:56;;;;;;;1.98;1.10;;;;;;;16.92;46.53;100739.72;4989774;28;115600;-68
2021/05/24 04:48:23;;;;;;;5.43;1.30;;;;;;;16.93;46.27;100729.88;4989207;28;114350;-68
2021/05/24 04:50:50;;;;;;;1.95;1.20;;;;;;;16.93;46.19;100725.41;4987609;28;123872;-68
2021/05/24 04:53:18;;;;;;;2.17;1.20;;;;;;;16.96;46.28;100723.47;4986820;28;123738;-68
2021/05/24 04:55:46;;;;;;;3.17;0.90;;;;;;;16.99;46.37;100728.56;4989774;28;114299;-68
2021/05/24 04:58:14;;;;;;;3.05;1.20;;;;;;;16.99;46.29;100726.78;4988849;28;113197;-68
2021/05/24 05:00:41;;;;;;;3.20;1.10;;;;;;;17.02;46.28;100739.06;4987867;28;123214;-68
2021/05/24 05:03:09;;;;;;;2.03;1.10;;;;;;;17.04;46.31;100737.13;4988581;28;123862;-68
2021/05/24 05:05:36;;;;;;;1.83;0.88;;;;;;;17.07;46.32;100728.88;4991081;28;114093;-68
2021/05/24 05:08:03;;;;;;;2.28;1.10;;;;;;;17.08;46.15;100727.91;4988285;28;113791;-68
2021/05/24 05:10:31;;;;;;;2.05;1.05;;;;;;;17.10;46.09;100731.31;4988918;28;123784;-68
2021/05/24 05:12:58;;;;;;;1.77;0.93;;;;;;;17.12;46.18;100726.69;4988179;28;122487;-69
2021/05/24 05:15:25;;;;;;;3.75;1.13;;;;;;;17.13;46.03;100726.59;4994792;28;114172;-68
2021/05/24 05:17:52;;;;;;;3.47;1.20;;;;;;;17.16;45.76;100733.56;4988524;28;115206;-68
2021/05/24 05:20:19;;;;;;;3.28;1.40;;;;;;;17.18;45.92;100728.94;4970315;28;123679;-68
2021/05/24 05:22:46;;;;;;;3.60;1.25;;;;;;;17.21;45.93;100738.53;4989130;28;124150;-68
2021/05/24 05:25:13;;;;;;;2.72;1.02;;;;;;;17.23;46.06;100732.09;4989289;28;114657;-68
2021/05/24 05:27:41;;;;;;;3.55;1.23;;;;;;;17.24;45.97;100733.81;4985545;28;113667;-68
2021/05/24 05:30:09;;;;;;;3.15;1.08;;;;;;;17.26;46.00;100734.56;4987981;28;124449;-68
2021/05/24 05:32:36;;;;;;;4.63;1.20;;;;;;;17.27;46.06;100733.59;4991465;28;124755;-68
2021/05/24 05:35:04;;;;;;;3.03;1.08;;;;;;;17.29;45.94;100734.34;4986003;28;114388;-68
2021/05/24 05:37:31;;;;;;;2.78;1.10;;;;;;;17.32;46.15;100731.41;4992098;28;114818;-68
2021/05/24 05:39:59;;;;;;;3.15;1.10;;;;;;;17.34;45.92;100728.63;4990964;28;124360;-68
2021/05/24 05:42:26;;;;;;;2.13;1.20;;;;;;;17.36;46.03;100725.84;4991866;28;124395;-68
2021/05/24 05:44:53;;;;;;;5.55;1.30;;;;;;;17.38;45.82;100734.59;4991079;28;114820;-69
2021/05/24 05:47:23;;;;;;;2.28;1.00;;;;;;;17.40;45.72;100727.31;4971525;28;113015;-68
2021/05/24 05:49:50;;;;;;;2.65;1.20;;;;;;;17.41;45.82;100726.34;4991459;28;124240;-69
2021/05/24 05:52:18;;;;;;;3.10;0.90;;;;;;;17.43;46.01;100716.38;5004699;22;124506;-68
2021/05/24 05:54:46;;;;;;;3.78;0.80;;;;;;;17.46;45.80;100724.16;4990805;28;114619;-68
2021/05/24 05:57:14;;;;;;;1.75;1.00;;;;;;;17.48;45.51;100719.56;4978815;28;114398;-68
2021/05/24 05:59:41;;;;;;;3.38;1.10;;;;;;;17.50;45.23;100717.63;4972040;28;124044;-68
2021/05/24 06:02:08;;;;;;;1.70;0.80;;;;;;;17.53;45.23;100720.03;4970035;28;124162;-68
2021/05/24 06:04:35;;;;;;;1.92;0.80;;;;;;;17.55;45.40;100720.78;4972026;28;115135;-68
2021/05/24 06:07:03;;;;;;;5.45;1.17;;;;;;;17.61;45.15;100722.13;4971865;28;115097;-68
2021/05/24 06:09:30;;;;;;;3.03;0.90;;;;;;;17.63;44.97;100718.38;4973265;28;124377;-68
2021/05/24 06:11:57;;;;;;;4.72;1.00;;;;;;;17.66;44.81;100723.50;4970673;28;125125;-68
2021/05/24 06:14:24;;;;;;;2.20;0.70;;;;;;;17.68;44.70;100716.19;4970101;28;114568;-68
2021/05/24 06:16:51;;;;;;;4.25;0.90;;;;;;;17.72;44.60;100716.81;4971683;28;112926;-68
2021/05/24 06:19:19;;;;;;;2.17;0.90;;;;;;;17.77;44.67;100721.81;4970453;28;124249;-68
2021/05/24 06:21:46;;;;;;;2.55;0.90;;;;;;;17.80;44.70;100718.88;4973039;28;124267;-68
2021/05/24 06:24:13;;;;;;;3.58;0.80;;;;;;;17.85;45.04;100711.38;4972796;28;113364;-68
2021/05/24 06:26:40;;;;;;;3.25;0.75;;;;;;;17.90;44.79;100710.06;4971872;28;114310;-68
2021/05/24 06:29:08;;;;;;;2.15;0.77;;;;;;;17.95;44.59;100720.44;4969937;28;123925;-68
2021/05/24 06:31:36;;;;;;;4.65;1.02;;;;;;;18.02;44.33;100718.09;4970742;28;123996;-68
2021/05/24 06:34:03;;;;;;;3.22;0.77;;;;;;;18.06;43.95;100715.09;4969330;28;114321;-68
2021/05/24 06:36:30;;;;;;;3.30;0.88;;;;;;;18.09;44.16;100719.34;4971441;28;113828;-68
2021/05/24 06:38:58;;;;;;;3.83;0.90;;;;;;;18.12;44.17;100716.44;4969308;28;123887;-68
2021/05/24 06:41:25;;;;;;;4.38;0.80;;;;;;;18.14;43.98;100714.47;4969828;28;124832;-68
2021/05/24 06:43:52;;;;;;;3.50;1.10;;;;;;;18.16;43.85;100708.97;4980890;28;114969;-68
2021/05/24 06:46:19;;;;;;;2.65;0.88;;;;;;;18.20;43.75;100710.47;4971649;28;114328;-68
2021/05/24 06:48:46;;;;;;;3.90;1.08;;;;;;;18.22;43.68;100705.81;4968463;28;124258;-69
2021/05/24 06:51:13;;;;;;;5.55;1.10;;;;;;;18.24;43.77;100711.91;4968690;28;124541;-68
2021/05/24 06:53:41;;;;;;;3.33;0.93;;;;;;;18.28;43.79;100708.00;4970390;28;115130;-68
2021/05/24 06:56:08;;;;;;;2.85;0.90;;;;;;;18.31;43.76;100713.13;4958214;28;115282;-68
2021/05/24 06:58:35;;;;;;;6.20;0.98;;;;;;;18.34;43.68;100707.50;4970131;28;124837;-68
2021/05/24 07:01:03;;;;;;;3.47;1.10;;;;;;;18.37;43.74;100715.31;4969949;28;123836;-68
2021/05/24 07:03:30;;;;;;;2.50;0.90;;;;;;;18.39;43.72;100705.31;4970529;28;114314;-68
2021/05/24 07:05:58;;;;;;;3.33;0.80;;;;;;;18.43;43.86;100706.78;4971011;28;114571;-67
2021/05/24 07:08:25;;;;;;;2.72;1.20;;;;;;;18.47;43.76;100718.13;4969149;28;124781;-67
2021/05/24 07:10:52;;;;;;;3.40;0.93;;;;;;;18.49;43.52;100717.00;4970645;28;123976;-68
2021/05/24 07:13:19;;;;;;;4.00;1.00;;;;;;;18.48;43.47;100709.94;4971516;28;114481;-68
2021/05/24 07:15:46;;;;;;;4.65;0.95;;;;;;;18.47;43.55;100708.22;4968955;28;114268;-68
2021/05/24 07:18:13;;;;;;;4.82;0.93;;;;;;;18.49;43.61;100706.28;4971192;28;124772;-68
2021/05/24 07:20:49;;;;;;;3.53;0.93;;;;;;;18.47;43.64;100702.03;4971890;28;123644;-68
2021/05/24 07:23:17;;;;;;;4.20;0.82;;;;;;;18.45;43.78;100696.78;4971008;28;114138;-68
2021/05/24 07:25:44;;;;;;;3.15;0.85;;;;;;;18.46;43.90;100695.81;4971172;28;114023;-68
2021/05/24 07:28:11;;;;;;;1.75;0.77;;;;;;;18.46;43.74;100701.19;4964760;28;123204;-68
2021/05/24 07:30:38;;;;;;;3.10;1.00;;;;;;;18.46;44.13;100701.19;4971663;28;123805;-68
2021/05/24 07:33:05;;;;;;;2.95;0.90;;;;;;;18.49;44.07;100702.75;4971967;28;114412;-67
2021/05/24 07:35:33;;;;;;;2.70;0.80;;;;;;;18.51;44.19;100703.47;4969510;28;113652;-68
2021/05/24 07:38:00;;;;;;;2.60;0.85;;;;;;;18.54;44.25;100702.41;4968973;28;125390;-68
2021/05/24 07:40:27;;;;;;;2.92;0.70;;;;;;;18.52;44.15;100699.00;4955065;28;124138;-68
2021/05/24 07:42:54;;;;;;;3.92;1.25;;;;;;;18.48;44.08;100711.78;4967949;28;114741;-68
2021/05/24 07:45:21;;;;;;;2.83;0.85;;;;;;;18.43;44.15;100705.94;4970544;28;114890;-68
2021/05/24 07:47:49;;;;;;;2.95;1.10;;;;;;;18.38;44.57;100708.97;4968694;28;124793;-68
2021/05/24 07:50:16;;;;;;;3.33;0.90;;;;;;;18.33;44.42;100716.56;4969957;28;123368;-68
2021/05/24 07:52:43;;;;;;;4.35;1.02;;;;;;;18.28;44.70;100724.09;4969014;28;115071;-68
2021/05/24 07:55:11;;;;;;;2.65;1.00;;;;;;;18.23;45.03;100710.19;4968969;28;114239;-68
2021/05/24 07:57:39;;;;;;;4.32;0.95;;;;;;;18.19;45.46;100723.00;4968397;28;123929;-68
2021/05/24 08:00:09;;;;;;;3.85;0.98;;;;;;;18.16;45.52;100719.69;4970058;28;123844;-67
2021/05/24 08:02:44;;;;;;;2.25;0.90;;;;;;;18.09;45.76;100724.69;4968893;28;114794;-68
2021/05/24 08:05:13;;;;;;;3.90;1.10;;;;;;;18.08;46.00;100721.19;4967641;28;113049;-68
2021/05/24 08:07:41;;;;;;;4.00;1.08;;;;;;;18.04;45.91;100733.09;4969459;28;123884;-68
2021/05/24 08:10:11;;;;;;;3.50;1.00;;;;;;;18.00;46.49;100731.63;4965200;28;123645;-67
2021/05/24 08:12:39;;;;;;;3.63;1.02;;;;;;;17.97;46.42;100737.25;4967453;28;114649;-68
2021/05/24 08:15:08;;;;;;;3.50;1.20;;;;;;;17.93;46.94;100741.09;4964964;28;114093;-68
2021/05/24 08:17:36;;;;;;;2.88;1.02;;;;;;;17.91;47.02;100743.06;4967261;28;124116;-68
2021/05/24 08:20:05;;;;;;;4.28;1.20;;;;;;;17.89;47.21;100742.31;4965885;28;124535;-65
2021/05/24 08:22:32;;;;;;;3.60;0.90;;;;;;;17.87;47.16;100742.44;4970968;28;113397;-65
2021/05/24 08:25:00;;;;;;;5.15;1.15;;;;;;;17.87;47.24;100736.22;4967613;28;114312;-65
2021/05/24 08:27:28;;;;;;;3.28;1.23;;;;;;;17.86;47.65;100745.25;4966646;28;123845;-65
2021/05/24 08:30:04;;;;;;;4.60;1.33;;;;;;;17.87;48.04;100736.22;4966318;28;123983;-65
2021/05/24 08:32:32;;;;;;;4.55;1.30;;;;;;;17.87;48.09;100742.44;4968274;28;115076;-65
2021/05/24 08:34:59;;;;;;;3.15;1.10;;;;;;;17.85;47.95;100743.53;4966602;28;118314;-65
2021/05/24 08:37:26;;;;;;;2.50;1.48;;;;;;;17.78;48.09;100747.63;4964414;28;124360;-65
2021/05/24 08:39:53;;;;;;;3.40;1.25;;;;;;;17.73;48.52;100749.81;4968307;28;123679;-65
2021/05/24 08:42:22;;;;;;;2.97;1.10;;;;;;;17.67;48.37;100746.63;4964930;28;114170;-65
2021/05/24 08:44:50;;;;;;;3.33;1.13;;;;;;;17.63;48.72;100755.00;4964698;28;114223;-65
2021/05/24 08:47:21;;;;;;;3.17;1.20;;;;;;;17.58;48.73;100741.13;4964539;28;125619;-65
2021/05/24 08:50:09;;;;;;;2.47;1.17;;;;;;;17.54;48.99;100748.53;4969523;28;123960;-65
2021/05/24 08:52:36;;;;;;;2.38;1.15;;;;;;;17.51;48.95;100746.09;4968145;28;114242;-65
2021/05/24 08:55:04;;;;;;;4.40;1.20;;;;;;;17.45;49.15;100751.91;4966986;28;114913;-65
2021/05/24 08:57:39;;;;;;;2.83;1.08;;;;;;;17.38;49.26;100746.16;4967403;28;123944;-64
2021/05/24 09:00:08;;;;;;;3.57;1.30;;;;;;;17.34;49.32;100738.50;4966407;28;123894;-66
2021/05/24 09:02:40;;;;;;;2.53;1.08;;;;;;;17.29;50.00;100737.03;4967742;28;114426;-64
2021/05/24 09:05:09;;;;;;;2.85;1.40;;;;;;;17.27;49.88;100728.25;4969929;28;114481;-66
2021/05/24 09:07:56;;;;;;;3.92;1.30;;;;;;;17.25;50.02;100730.19;4972000;28;124100;-65
2021/05/24 09:10:26;;;;;;;2.72;1.20;;;;;;;17.25;49.92;100730.19;4971571;28;124659;-66
2021/05/24 09:12:55;;;;;;;4.05;1.17;;;;;;;17.22;50.01;100730.41;4970705;28;114265;-66
2021/05/24 09:15:25;;;;;;;3.53;1.30;;;;;;;17.23;50.25;100731.25;4972905;28;114003;-65
2021/05/24 09:17:55;;;;;;;3.42;1.30;;;;;;;17.22;50.27;100725.06;4971416;28;124378;-66
2021/05/24 09:20:22;;;;;;;4.05;1.40;;;;;;;17.23;50.73;100726.75;4969822;28;123905;-66
2021/05/24 09:23:25;;;;;;;3.50;1.30;;;;;;;17.24;50.22;100733.81;4970109;28;115324;-66
2021/05/24 09:25:56;;;;;;;4.55;1.30;;;;;;;17.27;50.44;100736.28;4968987;28;114988;-66
2021/05/24 09:28:31;;;;;;;3.33;1.30;;;;;;;17.27;50.37;100728.25;4970312;28;123103;-65
2021/05/24 09:31:20;;;;;;;2.13;1.17;;;;;;;17.26;50.57;100725.69;4969512;28;123928;-66
2021/05/24 09:33:53;;;;;;;4.45;1.35;;;;;;;17.28;50.55;100729.94;4968820;28;114830;-66
2021/05/24 09:36:21;;;;;;;5.50;1.60;;;;;;;17.28;50.65;100729.94;4972815;28;113982;-66
2021/05/24 09:38:50;;;;;;;4.75;1.40;;;;;;;17.28;50.75;100729.94;4970958;28;123947;-66
2021/05/24 09:41:20;;;;;;;2.97;1.30;;;;;;;17.27;50.82;100727.38;4972524;28;124036;-66
2021/05/24 09:43:49;;;;;;;2.05;1.20;;;;;;;17.23;50.75;100732.09;4970025;28;114074;-66
2021/05/24 09:46:21;;;;;;;5.85;1.40;;;;;;;17.18;50.84;100718.22;4968378;28;114269;-66
2021/05/24 09:48:54;;;;;;;3.67;1.30;;;;;;;17.12;50.99;100724.91;4972339;28;124078;-66
2021/05/24 09:51:26;;;;;;;4.18;1.50;;;;;;;17.09;51.26;100718.91;4966797;28;123134;-65
2021/05/24 09:54:02;;;;;;;3.30;1.42;;;;;;;17.06;51.27;100719.13;4969583;28;114583;-66
2021/05/24 09:56:34;;;;;;;4.72;1.40;;;;;;;17.03;51.33;100717.56;4967140;28;114113;-66
2021/05/24 09:59:09;;;;;;;3.75;1.23;;;;;;;17.03;51.77;100714.03;4971432;28;124347;-66
2021/05/24 10:01:42;;;;;;;5.57;1.40;;;;;;;17.03;52.00;100714.03;4969359;28;124039;-66
2021/05/24 10:04:12;;;;;;;2.20;1.15;;;;;;;17.05;52.14;100712.09;4968233;28;114667;-66
2021/05/24 10:06:40;;;;;;;3.05;1.30;;;;;;;17.08;52.40;100711.84;4972071;28;114260;-66
2021/05/24 10:09:10;;;;;;;2.85;1.50;;;;;;;17.12;52.38;100711.50;4970294;28;123099;-66
2021/05/24 10:11:39;;;;;;;2.42;1.30;;;;;;;17.15;52.52;100709.56;4982170;28;122948;-66
2021/05/24 10:14:07;;;;;;;3.00;1.50;;;;;;;17.17;52.30;100704.97;4967261;28;115283;-66
2021/05/24 10:16:44;;;;;;;3.78;1.42;;;;;;;17.18;52.46;100702.16;4969944;28;115142;-66
2021/05/24 10:19:21;;;;;;;4.15;1.67;;;;;;;17.19;52.30;100698.50;4988403;28;123225;-66
2021/05/24 10:21:50;;;;;;;3.92;1.40;;;;;;;17.19;52.44;100698.50;4972046;28;123003;-66
2021/05/24 10:24:24;;;;;;;3.63;1.30;;;;;;;17.20;52.87;100700.22;4973141;28;114660;-69
2021/05/24 10:27:00;;;;;;;2.78;1.30;;;;;;;17.21;52.84;100699.25;4968937;28;113863;-69
2021/05/24 10:29:29;;;;;;;2.45;1.20;;;;;;;17.24;52.89;100696.34;4967760;28;124094;-69
2021/05/24 10:31:58;;;;;;;3.70;1.52;;;;;;;17.23;52.77;100699.97;4967204;28;123807;-69
2021/05/24 10:34:36;;;;;;;4.13;1.50;;;;;;;17.19;53.09;100703.88;4972929;28;114094;-69
2021/05/24 10:37:13;;;;;;;2.13;1.52;;;;;;;17.21;53.15;100693.88;4963947;28;114574;-69
2021/05/24 10:40:04;;;;;;;2.55;1.33;;;;;;;17.23;53.39;100699.13;4970127;28;123021;-69
2021/05/24 10:42:44;;;;;;;3.90;1.30;;;;;;;17.23;53.38;100693.78;4967748;28;123627;-69
2021/05/24 10:45:16;;;;;;;2.20;1.20;;;;;;;17.23;53.66;100694.63;4970141;28;114621;-69
2021/05/24 10:47:53;;;;;;;2.55;1.30;;;;;;;17.20;53.59;100689.53;4975337;28;113698;-69
2021/05/24 10:50:21;;;;;;;4.38;1.50;;;;;;;17.19;53.69;100698.50;4964931;28;124142;-69
2021/05/24 10:52:57;;;;;;;3.80;1.33;;;;;;;17.18;54.10;100696.81;4971187;28;123954;-69
2021/05/24 10:55:24;;;;;;;2.85;1.20;;;;;;;17.24;54.14;100691.00;4971056;28;114593;-69
2021/05/24 10:57:56;;;;;;;3.00;0.90;;;;;;;17.28;54.01;100689.78;4972167;28;114170;-69
2021/05/24 11:00:23;;;;;;;2.92;0.82;;;;;;;17.35;53.53;100689.31;4971278;28;124221;-69
2021/05/24 11:03:07;;;;;;;1.73;0.98;;;;;;;17.35;53.77;100686.63;4970901;28;124159;-69
2021/05/24 11:05:34;;;;;;;2.50;1.00;;;;;;;17.43;53.84;100689.59;4972221;28;115603;-66
2021/05/24 11:08:06;;;;;;;1.75;1.00;;;;;;;17.49;53.83;100694.47;4969851;28;113916;-66
2021/05/24 11:10:39;;;;;;;1.88;0.80;;;;;;;17.55;53.94;100693.16;4969072;28;124877;-66
2021/05/24 11:13:09;;;;;;;1.67;0.90;;;;;;;17.62;53.84;100679.16;4966725;28;124108;-66
2021/05/24 11:15:44;;;;;;;2.45;0.95;;;;;;;17.68;54.08;100689.41;4973722;28;114321;-66
2021/05/24 11:18:13;;;;;;;;;;;;;;;17.76;53.56;100685.28;4971272;28;114107;-66
2021/05/24 11:21:16;;;;;;;2.70;0.80;;;;;;;17.83;53.35;100682.00;4969597;28;124318;-66
2021/05/24 11:26:20;;;;;;;1.27;0.70;;;;;;;17.89;52.84;100680.69;4971849;28;114567;-66
2021/05/24 11:28:52;;;;;;;1.30;0.90;;;;;;;17.89;53.38;100669.97;4967543;28;113933;-66